Green Meadow, Maryland
Current Conditions -  °F | °C
As of 1:10 AM on Thursday 23 Oct 2014 (Local Time) from KCGS Reporting Station
Broken Clouds Broken Clouds  
Wind Chill: 52°   Ceiling: 3400
Heat Index: 52°   Visibility: 10mi
Dew Point: 43°   Wind: 8mph
Humidity: 71%   Direction: 310°NW
Pressure: 29.9"   Gusts: NA
Location:  38.9677°N, 76.9584°W
Report Text: KCGS 230510Z AUTO 31007KT 10SM BKN034 11/06 A2990 RMK AO1
Loading
Personal Weather Stations






























Interactive Weather Map
Tropical Storm Tracking
New forecast layout! Learn more

10-Day Weather Forecast

Advertisements
Track Severe Weather on mobile